Sachse's Hourly Summary for Friday, July 6, 2018
Hour Temp
(f)
RH
(%)
Solar Rad.
(MJ/m2)
Rainfall
(in)
Wind
(mph)
7/6/2018 12:00 AM 83 63 0 0 2.42
7/6/2018 1:00 AM 82 65 0 0 0.72
7/6/2018 2:00 AM 77 71 0 0 0.3
7/6/2018 3:00 AM 78 77 0 0 0
7/6/2018 4:00 AM 78 79 0 0 0.04
7/6/2018 5:00 AM 77 80 0 0 0.11
7/6/2018 6:00 AM 77 80 0 0 0.94
7/6/2018 7:00 AM 77 81 0.04 0 1.85
7/6/2018 8:00 AM 79 75 0.49 0 3.32
7/6/2018 9:00 AM 82 66 1.11 0 3.27
7/6/2018 10:00 AM 86 59 1.74 0 2.45
7/6/2018 11:00 AM 88 55 2.05 0 3.42
7/6/2018 12:00 PM 90 49 1.96 0 3.82
7/6/2018 1:00 PM 92 43 2.32 0 3.9
7/6/2018 2:00 PM 93 39 1.9 0 4.33
7/6/2018 3:00 PM 87 40 1.01 0.2 5.87
7/6/2018 4:00 PM 75 82 0.29 0.08 2.33
7/6/2018 5:00 PM 80 72 0.72 0 0.53
7/6/2018 6:00 PM 82 59 0.76 0 2.27
7/6/2018 7:00 PM 81 63 0.65 0 1.76
7/6/2018 8:00 PM 81 65 0.28 0 2.48
7/6/2018 9:00 PM 80 69 0.01 0 3.43
7/6/2018 10:00 PM 79 74 0 0 3.56
7/6/2018 11:00 PM 79 70 0 0 1.67
Data Summary 81 65 15.33 0.28 2.28